Time;durP1;ratioP1;P1;durP2;ratioP2;P2;SDS_P1;SDS_P2;PMS_P1;PMS_P2;Temp;Humidity;BMP_temperature;BMP_pressure;BME280_temperature;BME280_humidity;BME280_pressure;Samples;Min_cycle;Max_cycle;Signal;HPM_P1;HPM_P2
2021/11/15 00:00:46;;;;;;;10.55;9.43;;;10.00;99.90;;;;;;5070726;28;20029;-90
2021/11/15 00:03:14;;;;;;;7.97;7.18;;;9.90;99.90;;;;;;5072678;28;20170;-90
2021/11/15 00:05:40;;;;;;;9.82;8.57;;;9.90;99.90;;;;;;5053066;28;20025;-90
2021/11/15 00:08:05;;;;;;;18.10;13.77;;;10.00;99.90;;;;;;5056892;28;20040;-91
2021/11/15 00:10:31;;;;;;;15.10;13.50;;;9.90;99.90;;;;;;5027935;28;20474;-90
2021/11/15 00:12:57;;;;;;;10.93;9.50;;;9.90;99.90;;;;;;5027488;28;20075;-90
2021/11/15 00:15:23;;;;;;;8.75;7.85;;;9.90;99.90;;;;;;5018041;28;20032;-90
2021/11/15 00:17:49;;;;;;;13.98;12.60;;;9.90;99.90;;;;;;5058255;28;20041;-90
2021/11/15 00:20:17;;;;;;;23.88;21.50;;;9.90;99.90;;;;;;5050818;28;20028;-90
2021/11/15 00:22:43;;;;;;;25.13;22.38;;;10.30;99.90;;;;;;5063588;28;20112;-90
2021/11/15 00:25:10;;;;;;;41.45;37.22;;;10.30;99.90;;;;;;5048891;28;20562;-90
2021/11/15 00:27:36;;;;;;;14.95;13.40;;;9.80;99.90;;;;;;5052025;28;20037;-90
2021/11/15 00:30:03;;;;;;;10.75;8.68;;;9.80;99.90;;;;;;5056442;28;20537;-90
2021/11/15 00:32:29;;;;;;;10.15;8.75;;;9.60;99.90;;;;;;5064176;28;20373;-90
2021/11/15 00:34:55;;;;;;;10.10;8.02;;;9.60;99.90;;;;;;5051842;28;20234;-90
2021/11/15 00:37:21;;;;;;;11.73;10.20;;;9.80;99.90;;;;;;5053300;28;20502;-90
2021/11/15 00:39:48;;;;;;;10.90;9.80;;;9.30;99.90;;;;;;5042602;28;20554;-90
2021/11/15 00:42:13;;;;;;;10.45;9.23;;;9.70;99.90;;;;;;5071775;28;20104;-90
2021/11/15 00:44:39;;;;;;;9.63;8.55;;;9.40;99.90;;;;;;5063959;28;20047;-90
2021/11/15 00:47:05;;;;;;;10.57;8.95;;;9.50;99.90;;;;;;5051596;28;20145;-90
2021/11/15 00:49:31;;;;;;;16.50;14.73;;;9.50;99.90;;;;;;5064525;28;20035;-90
2021/11/15 00:51:57;;;;;;;11.50;9.68;;;9.90;99.90;;;;;;5066501;28;20508;-90
2021/11/15 00:54:22;;;;;;;10.05;9.05;;;9.50;99.90;;;;;;5069502;28;20038;-90
2021/11/15 00:56:48;;;;;;;13.75;10.40;;;9.40;99.90;;;;;;5066627;28;20029;-90
2021/11/15 00:59:14;;;;;;;15.43;12.63;;;9.50;99.90;;;;;;5069267;28;20036;-89
2021/11/15 01:01:40;;;;;;;18.63;13.38;;;9.40;99.90;;;;;;5061396;28;20029;-90
2021/11/15 01:04:06;;;;;;;10.52;8.93;;;9.50;99.90;;;;;;5065013;28;20451;-90
2021/11/15 01:06:31;;;;;;;16.95;12.50;;;9.40;99.90;;;;;;5069589;28;20025;-90
2021/11/15 01:08:57;;;;;;;12.07;10.65;;;9.40;99.90;;;;;;5066450;28;20079;-90
2021/11/15 01:11:23;;;;;;;10.75;9.65;;;9.30;99.90;;;;;;5068342;28;20385;-91
2021/11/15 01:13:48;;;;;;;15.73;12.82;;;9.30;99.90;;;;;;5064213;28;20072;-90
2021/11/15 01:16:15;;;;;;;10.80;9.13;;;9.30;99.90;;;;;;5068397;28;20037;-90
2021/11/15 01:18:43;;;;;;;33.33;26.65;;;9.80;99.90;;;;;;5067634;28;20040;-90
2021/11/15 01:21:10;;;;;;;31.23;22.65;;;9.90;99.90;;;;;;5071100;28;20025;-90
2021/11/15 01:23:36;;;;;;;11.52;9.90;;;9.40;99.90;;;;;;5052526;28;20442;-90
2021/11/15 01:26:02;;;;;;;10.63;9.20;;;9.70;99.90;;;;;;5068799;28;20060;-90
2021/11/15 01:28:28;;;;;;;10.38;9.30;;;9.40;99.90;;;;;;5048547;28;20021;-90
2021/11/15 01:30:53;;;;;;;11.68;9.23;;;9.70;99.90;;;;;;5067665;28;20043;-90
2021/11/15 01:33:19;;;;;;;11.55;9.38;;;9.30;99.90;;;;;;5069103;28;20028;-90
2021/11/15 01:35:45;;;;;;;11.65;10.05;;;9.30;99.90;;;;;;5069718;28;20473;-90
2021/11/15 01:38:11;;;;;;;10.63;9.57;;;9.20;99.90;;;;;;5066910;28;20402;-90
2021/11/15 01:40:37;;;;;;;12.60;9.68;;;9.70;99.90;;;;;;5048897;28;20039;-90
2021/11/15 01:43:04;;;;;;;11.07;9.93;;;9.60;99.90;;;;;;5066145;28;20099;-90
2021/11/15 01:45:35;;;;;;;11.35;10.15;;;9.50;99.90;;;;;;5067881;28;20060;-90
2021/11/15 01:48:03;;;;;;;12.30;9.93;;;9.10;99.90;;;;;;5053817;28;20035;-90
2021/11/15 01:50:30;;;;;;;11.48;10.27;;;9.20;99.90;;;;;;5067883;28;20530;-90
2021/11/15 01:52:57;;;;;;;11.25;10.00;;;9.40;99.90;;;;;;5067930;28;20127;-90
2021/11/15 01:55:24;;;;;;;14.82;13.23;;;9.60;99.90;;;;;;5067974;28;20511;-91
2021/11/15 01:57:51;;;;;;;17.83;15.07;;;9.10;99.90;;;;;;5067842;28;20123;-89
2021/11/15 02:00:21;;;;;;;16.70;14.05;;;9.60;99.90;;;;;;5069172;28;20609;-91
2021/11/15 02:02:47;;;;;;;13.38;11.13;;;9.10;99.90;;;;;;5073176;28;20033;-90
2021/11/15 02:05:12;;;;;;;13.60;10.95;;;9.00;99.90;;;;;;5067946;28;20386;-90
2021/11/15 02:07:38;;;;;;;14.15;11.73;;;9.20;99.90;;;;;;5067843;28;20455;-90
2021/11/15 02:10:07;;;;;;;11.25;9.95;;;8.90;99.90;;;;;;5066461;28;20060;-90
2021/11/15 02:12:33;;;;;;;12.00;10.40;;;9.00;99.90;;;;;;5049554;28;20041;-90
2021/11/15 02:14:58;;;;;;;12.10;10.85;;;9.00;99.90;;;;;;5072903;28;20050;-90
2021/11/15 02:17:24;;;;;;;11.68;10.40;;;8.90;99.90;;;;;;5067247;28;20093;-90
2021/11/15 02:19:51;;;;;;;12.38;11.00;;;9.00;99.90;;;;;;5065754;28;20098;-90
2021/11/15 02:22:17;;;;;;;11.65;9.75;;;9.00;99.90;;;;;;5067193;28;20039;-90
2021/11/15 02:24:44;;;;;;;14.00;11.80;;;9.00;99.90;;;;;;5050032;28;20025;-91
2021/11/15 02:27:10;;;;;;;13.13;11.10;;;8.90;99.90;;;;;;5052639;28;20107;-90
2021/11/15 02:29:39;;;;;;;13.38;11.30;;;8.90;99.90;;;;;;5067739;28;20101;-91
2021/11/15 02:32:07;;;;;;;12.68;11.20;;;8.90;99.90;;;;;;5049438;28;20124;-90
2021/11/15 02:34:32;;;;;;;13.68;11.70;;;8.90;99.90;;;;;;5067562;28;20391;-90
2021/11/15 02:36:58;;;;;;;13.30;11.43;;;9.30;99.90;;;;;;5066830;28;20039;-90
2021/11/15 02:39:24;;;;;;;15.27;11.70;;;9.30;99.90;;;;;;5035816;28;20025;-91
2021/11/15 02:41:49;;;;;;;13.70;11.73;;;9.20;99.90;;;;;;5055640;28;20024;-90
2021/11/15 02:44:15;;;;;;;13.88;11.57;;;8.80;99.90;;;;;;5047872;28;20527;-90
2021/11/15 02:46:41;;;;;;;14.70;12.07;;;8.80;99.90;;;;;;5049773;28;20024;-90
2021/11/15 02:49:07;;;;;;;14.55;12.07;;;8.80;99.90;;;;;;5065412;28;20026;-90
2021/11/15 02:51:32;;;;;;;14.90;12.48;;;8.80;99.90;;;;;;5050425;28;20032;-90
2021/11/15 02:53:58;;;;;;;16.48;13.52;;;9.20;99.90;;;;;;5054385;28;20048;-90
2021/11/15 02:56:24;;;;;;;14.85;13.00;;;8.80;99.90;;;;;;5050747;28;20036;-90
2021/11/15 02:58:50;;;;;;;13.73;11.93;;;8.80;99.90;;;;;;5047919;28;20040;-90
2021/11/15 03:01:20;;;;;;;13.52;11.45;;;8.90;99.90;;;;;;5067126;28;20504;-90
2021/11/15 03:03:46;;;;;;;14.40;11.35;;;9.20;99.90;;;;;;5065700;28;20033;-90
2021/11/15 03:06:12;;;;;;;14.10;11.55;;;9.40;99.90;;;;;;5051278;28;20020;-90
2021/11/15 03:08:39;;;;;;;19.67;13.32;;;9.40;99.90;;;;;;5070856;28;20027;-90
2021/11/15 03:11:06;;;;;;;14.32;11.48;;;8.90;99.90;;;;;;5057404;28;20473;-90
2021/11/15 03:13:42;;;;;;;14.05;11.77;;;9.20;99.90;;;;;;5048044;28;20135;-90
2021/11/15 03:16:07;;;;;;;15.23;11.90;;;8.80;99.90;;;;;;5064378;28;20047;-90
2021/11/15 03:18:36;;;;;;;14.23;11.38;;;8.80;99.90;;;;;;5066831;28;20029;-90
2021/11/15 03:21:05;;;;;;;14.38;12.07;;;9.20;99.90;;;;;;5053669;28;20035;-90
2021/11/15 03:23:33;;;;;;;15.38;12.43;;;8.80;99.90;;;;;;5051115;28;20025;-90
2021/11/15 03:26:00;;;;;;;13.27;11.45;;;8.80;99.90;;;;;;5047985;28;20557;-90
2021/11/15 03:28:33;;;;;;;14.63;12.40;;;8.80;99.90;;;;;;5063962;28;20024;-90
2021/11/15 03:31:07;;;;;;;13.38;11.73;;;8.90;99.90;;;;;;5066616;28;20468;-90
2021/11/15 03:33:35;;;;;;;16.80;12.88;;;8.80;99.90;;;;;;5065421;28;20033;-90
2021/11/15 03:36:01;;;;;;;15.10;12.70;;;8.80;99.90;;;;;;5071035;28;20021;-90
2021/11/15 03:38:27;;;;;;;13.27;11.23;;;9.10;99.90;;;;;;5066300;28;20078;-90
2021/11/15 03:40:53;;;;;;;14.65;12.80;;;8.90;99.90;;;;;;5069872;28;20021;-91
2021/11/15 03:43:19;;;;;;;13.90;11.40;;;9.00;99.90;;;;;;5055995;28;20041;-90
2021/11/15 03:45:45;;;;;;;14.20;12.20;;;9.10;99.90;;;;;;5055620;28;20485;-91
2021/11/15 03:48:12;;;;;;;14.18;11.95;;;8.90;99.90;;;;;;5075136;28;20493;-90
2021/11/15 03:50:38;;;;;;;15.90;12.73;;;8.90;99.90;;;;;;5057178;28;20028;-89
2021/11/15 03:53:07;;;;;;;15.43;12.55;;;8.80;99.90;;;;;;5072787;28;20028;-90
2021/11/15 03:55:33;;;;;;;15.00;12.10;;;8.70;99.90;;;;;;5072259;28;20042;-90
2021/11/15 03:57:59;;;;;;;15.90;12.32;;;8.70;99.90;;;;;;5053494;28;20036;-91
2021/11/15 04:00:28;;;;;;;15.80;12.10;;;8.70;99.90;;;;;;5073236;28;20025;-90
2021/11/15 04:03:01;;;;;;;16.42;12.23;;;9.00;99.90;;;;;;5078958;28;20060;-90
2021/11/15 04:05:30;;;;;;;14.85;12.35;;;8.60;99.90;;;;;;5072511;28;20020;-90
2021/11/15 04:07:56;;;;;;;15.88;12.55;;;8.80;99.90;;;;;;5073211;28;20028;-90
2021/11/15 04:10:29;;;;;;;15.57;12.75;;;8.50;99.90;;;;;;5072874;28;20281;-90
2021/11/15 04:12:57;;;;;;;15.20;12.23;;;8.60;99.90;;;;;;5072236;28;20033;-90
2021/11/15 04:15:23;;;;;;;14.43;12.07;;;8.60;99.90;;;;;;5073891;28;20033;-90
2021/11/15 04:17:50;;;;;;;14.75;11.48;;;9.10;99.90;;;;;;5057353;28;20036;-90
2021/11/15 04:20:18;;;;;;;15.70;12.05;;;8.50;99.90;;;;;;5062767;28;20066;-90
2021/11/15 04:22:44;;;;;;;14.70;11.80;;;8.60;99.90;;;;;;5070559;28;20133;-90
2021/11/15 04:25:10;;;;;;;15.20;11.02;;;8.60;99.90;;;;;;5069674;28;20532;-90
2021/11/15 04:27:36;;;;;;;14.32;11.13;;;9.10;99.90;;;;;;5053919;28;20115;-90
2021/11/15 04:30:04;;;;;;;13.43;10.55;;;8.70;99.90;;;;;;5074319;28;20118;-90
2021/11/15 04:32:30;;;;;;;12.48;10.45;;;8.70;99.90;;;;;;5053670;28;20028;-90
2021/11/15 04:34:56;;;;;;;13.63;10.40;;;8.60;99.90;;;;;;5062885;28;20033;-90
2021/11/15 04:37:22;;;;;;;12.82;10.10;;;8.90;99.90;;;;;;5071035;28;20032;-90
2021/11/15 04:39:48;;;;;;;13.52;10.23;;;9.00;99.90;;;;;;5054880;28;20025;-87
2021/11/15 04:42:13;;;;;;;12.55;10.00;;;8.60;99.90;;;;;;5066507;28;20039;-90
2021/11/15 04:44:39;;;;;;;14.90;11.20;;;8.60;99.90;;;;;;5054962;28;20090;-90
2021/11/15 04:47:05;;;;;;;14.68;10.77;;;8.80;99.90;;;;;;5069904;28;20078;-90
2021/11/15 04:49:31;;;;;;;14.95;11.13;;;8.60;99.90;;;;;;5065721;28;20553;-90
2021/11/15 04:51:56;;;;;;;13.70;10.80;;;9.10;99.90;;;;;;5039358;28;20017;-90
2021/11/15 04:54:22;;;;;;;15.20;11.45;;;8.60;99.90;;;;;;5068562;28;20036;-90
2021/11/15 04:56:48;;;;;;;14.90;11.30;;;8.70;99.90;;;;;;5056844;28;20028;-91
2021/11/15 04:59:15;;;;;;;17.75;12.18;;;9.00;99.90;;;;;;5059475;28;20049;-90
2021/11/15 05:01:41;;;;;;;16.05;11.85;;;9.00;99.90;;;;;;5051428;28;20025;-91
2021/11/15 05:04:07;;;;;;;15.63;11.50;;;8.80;99.90;;;;;;5068903;28;20017;-91
2021/11/15 05:06:33;;;;;;;17.20;12.27;;;8.90;99.90;;;;;;5067031;28;20021;-91
2021/11/15 05:08:59;;;;;;;17.63;12.00;;;8.50;99.90;;;;;;5074371;28;20031;-90
2021/11/15 05:11:25;;;;;;;17.35;11.80;;;8.50;99.90;;;;;;5061828;28;20025;-90
2021/11/15 05:13:51;;;;;;;16.15;12.05;;;8.50;99.90;;;;;;5047502;28;20048;-90
2021/11/15 05:16:16;;;;;;;18.00;11.70;;;8.60;99.90;;;;;;5066774;28;20048;-90
2021/11/15 05:18:42;;;;;;;16.15;11.57;;;8.50;99.90;;;;;;5050884;28;20017;-90
2021/11/15 05:21:08;;;;;;;16.30;11.75;;;9.00;99.90;;;;;;5073077;28;20037;-90
2021/11/15 05:23:35;;;;;;;17.67;12.13;;;8.40;99.90;;;;;;5050239;28;20025;-90
2021/11/15 05:26:01;;;;;;;17.85;12.43;;;8.50;99.90;;;;;;5049945;28;20024;-90
2021/11/15 05:28:26;;;;;;;16.73;11.60;;;8.60;99.90;;;;;;5051680;28;20423;-90
2021/11/15 05:30:52;;;;;;;14.73;11.52;;;8.50;99.90;;;;;;5050599;28;20058;-90
2021/11/15 05:33:18;;;;;;;15.25;11.77;;;8.50;99.90;;;;;;5069823;28;20033;-90
2021/11/15 05:35:43;;;;;;;14.70;11.00;;;8.60;99.90;;;;;;5073449;28;20505;-91
2021/11/15 05:38:09;;;;;;;15.88;11.95;;;8.90;99.90;;;;;;5066086;28;20078;-91
2021/11/15 05:40:35;;;;;;;15.85;11.85;;;8.70;99.90;;;;;;5067281;28;20033;-91
2021/11/15 05:43:01;;;;;;;15.18;11.35;;;8.70;99.90;;;;;;5066286;28;20032;-90
2021/11/15 05:45:27;;;;;;;15.38;11.82;;;8.70;99.90;;;;;;5049389;28;20028;-91
2021/11/15 05:47:54;;;;;;;17.40;11.38;;;8.70;99.90;;;;;;5074272;28;20047;-91
2021/11/15 05:50:21;;;;;;;16.02;12.25;;;9.00;99.90;;;;;;5068158;28;20077;-90
2021/11/15 05:52:48;;;;;;;16.92;11.43;;;8.90;99.90;;;;;;5068022;28;20078;-91
2021/11/15 05:55:16;;;;;;;16.35;11.48;;;8.80;99.90;;;;;;5067780;28;20021;-91
2021/11/15 05:57:42;;;;;;;16.63;11.07;;;8.80;99.90;;;;;;5068326;28;20037;-91
2021/11/15 06:00:12;;;;;;;17.13;11.00;;;8.50;99.90;;;;;;5070472;28;20115;-91
2021/11/15 06:02:38;;;;;;;19.77;11.90;;;8.60;99.90;;;;;;5070666;28;20016;-90
2021/11/15 06:05:05;;;;;;;15.07;10.90;;;8.50;99.90;;;;;;5049252;28;20020;-91
2021/11/15 06:07:30;;;;;;;16.38;11.48;;;8.50;99.90;;;;;;5045728;28;20056;-90
2021/11/15 06:09:56;;;;;;;15.40;11.38;;;8.50;99.90;;;;;;5067854;28;20048;-90
2021/11/15 06:12:22;;;;;;;16.17;11.27;;;8.50;99.90;;;;;;5067419;28;20075;-90
2021/11/15 06:14:48;;;;;;;16.80;11.88;;;9.00;99.90;;;;;;5064792;28;20047;-90
2021/11/15 06:17:15;;;;;;;16.60;11.50;;;9.10;99.90;;;;;;5059241;28;20073;-90
2021/11/15 06:19:41;;;;;;;23.52;15.30;;;8.60;99.90;;;;;;5061532;28;20082;-91
2021/11/15 06:22:07;;;;;;;16.95;12.48;;;8.60;99.90;;;;;;5064360;28;20032;-90
2021/11/15 06:24:33;;;;;;;15.82;11.43;;;8.60;99.90;;;;;;5049888;28;20017;-91
2021/11/15 06:26:58;;;;;;;14.27;10.82;;;8.70;99.90;;;;;;5065187;28;20039;-90
2021/11/15 06:29:24;;;;;;;18.00;13.10;;;8.90;99.90;;;;;;5059012;28;20112;-90
2021/11/15 06:31:50;;;;;;;15.95;11.25;;;8.70;99.90;;;;;;5058868;28;20025;-90
2021/11/15 06:34:15;;;;;;;13.70;10.75;;;8.70;99.90;;;;;;5064128;28;20033;-91
2021/11/15 06:36:42;;;;;;;15.30;10.90;;;8.60;99.90;;;;;;5056687;28;20041;-91
2021/11/15 06:39:08;;;;;;;15.43;10.93;;;8.70;99.90;;;;;;5048306;28;20555;-90
2021/11/15 06:41:35;;;;;;;16.25;11.25;;;8.80;99.90;;;;;;5065960;28;20024;-91
2021/11/15 06:44:01;;;;;;;16.52;11.25;;;8.70;99.90;;;;;;5059565;28;20096;-91
2021/11/15 06:46:28;;;;;;;18.40;12.38;;;9.10;99.90;;;;;;5048717;28;20063;-90
2021/11/15 06:48:55;;;;;;;16.27;11.52;;;9.20;99.90;;;;;;5063359;28;20028;-91
2021/11/15 06:51:20;;;;;;;17.50;11.15;;;8.60;99.90;;;;;;5066443;28;20033;-91
2021/11/15 06:53:46;;;;;;;23.65;13.90;;;9.00;99.90;;;;;;5054371;28;20024;-92
2021/11/15 06:56:12;;;;;;;17.60;10.75;;;8.60;99.90;;;;;;5067888;28;20511;-90
2021/11/15 06:58:38;;;;;;;15.48;11.23;;;9.00;99.90;;;;;;5064822;28;20024;-90
2021/11/15 07:01:04;;;;;;;16.38;10.57;;;8.70;99.90;;;;;;5064494;28;20029;-89
2021/11/15 07:03:31;;;;;;;14.13;10.43;;;8.60;99.90;;;;;;5066423;28;20029;-90
2021/11/15 07:05:57;;;;;;;15.10;10.35;;;8.60;99.90;;;;;;5072685;28;20032;-89
2021/11/15 07:08:23;;;;;;;14.43;9.75;;;8.50;99.90;;;;;;5067281;28;20024;-91
2021/11/15 07:10:49;;;;;;;14.27;10.23;;;8.50;99.90;;;;;;5066527;28;20063;-93
2021/11/15 07:13:15;;;;;;;15.73;9.68;;;8.60;99.90;;;;;;5066556;28;20048;-91
2021/11/15 07:15:41;;;;;;;15.70;10.75;;;8.70;99.90;;;;;;5064435;28;20580;-90
2021/11/15 07:18:07;;;;;;;15.98;11.23;;;8.60;99.90;;;;;;5051851;28;20039;-91
2021/11/15 07:20:33;;;;;;;14.25;8.85;;;8.70;99.90;;;;;;5052003;28;20489;-91
2021/11/15 07:22:59;;;;;;;13.93;9.20;;;8.60;99.90;;;;;;5062834;28;20024;-91
2021/11/15 07:25:25;;;;;;;13.95;9.65;;;8.60;99.90;;;;;;5066452;28;20096;-89
2021/11/15 07:27:53;;;;;;;15.20;10.18;;;8.60;99.90;;;;;;5065681;28;20107;-88
2021/11/15 07:30:20;;;;;;;14.65;10.07;;;8.90;99.90;;;;;;5070806;28;20481;-90
2021/11/15 07:32:47;;;;;;;15.35;10.45;;;8.70;99.90;;;;;;5072387;28;20032;-89
2021/11/15 07:35:13;;;;;;;13.80;9.70;;;8.70;99.90;;;;;;5054535;28;20033;-89
2021/11/15 07:37:38;;;;;;;12.57;9.10;;;8.60;99.90;;;;;;5054060;28;20041;-90
2021/11/15 07:40:07;;;;;;;14.23;8.90;;;8.60;99.90;;;;;;5045363;28;20393;-89
2021/11/15 07:42:33;;;;;;;13.20;9.27;;;8.70;99.90;;;;;;5069377;28;20032;-89
2021/11/15 07:44:59;;;;;;;15.27;9.60;;;8.70;99.90;;;;;;5053418;28;20021;-88
2021/11/15 07:47:25;;;;;;;15.05;10.00;;;8.70;99.90;;;;;;5033310;28;20045;-88
2021/11/15 07:49:51;;;;;;;17.92;11.30;;;8.70;99.90;;;;;;5047641;28;20029;-90
2021/11/15 07:52:17;;;;;;;15.77;10.73;;;9.10;99.90;;;;;;5042143;28;20025;-90
2021/11/15 07:54:44;;;;;;;14.82;9.85;;;8.70;99.90;;;;;;5038156;28;20029;-89
2021/11/15 07:57:10;;;;;;;14.77;9.48;;;8.70;99.90;;;;;;5034007;28;21193;-87
2021/11/15 07:59:37;;;;;;;15.80;10.32;;;8.80;99.90;;;;;;5052741;28;20104;-89
2021/11/15 08:02:03;;;;;;;16.35;11.77;;;8.70;99.90;;;;;;5064903;28;20113;-90
2021/11/15 08:04:29;;;;;;;16.25;11.90;;;8.60;99.90;;;;;;5061019;28;20396;-91
2021/11/15 08:06:55;;;;;;;15.32;10.82;;;9.10;99.90;;;;;;5034209;28;20025;-89
2021/11/15 08:09:21;;;;;;;13.98;9.25;;;8.60;99.90;;;;;;5036368;28;20028;-94
2021/11/15 08:11:50;;;;;;;16.23;11.45;;;8.70;99.90;;;;;;5053958;28;20098;-89
2021/11/15 08:14:16;;;;;;;17.88;10.75;;;8.80;99.90;;;;;;5035933;28;20025;-91
2021/11/15 08:16:42;;;;;;;16.65;10.85;;;8.90;99.90;;;;;;5054078;28;20043;-89
2021/11/15 08:19:08;;;;;;;17.48;11.05;;;8.80;99.90;;;;;;5055376;28;20082;-91
2021/11/15 08:21:34;;;;;;;15.63;10.23;;;9.30;99.90;;;;;;5065196;28;20490;-85
2021/11/15 08:24:29;;;;;;;16.67;10.07;;;9.60;99.90;;;;;;5066266;28;20044;-86
2021/11/15 08:27:01;;;;;;;15.68;10.98;;;9.10;99.90;;;;;;5009018;28;20567;-83
2021/11/15 08:29:30;;;;;;;27.98;23.45;;;9.10;99.90;;;;;;5007795;28;20328;-84
2021/11/15 08:32:00;;;;;;;21.13;13.73;;;9.10;99.90;;;;;;5004641;28;20049;-78
2021/11/15 08:34:26;;;;;;;14.35;10.45;;;9.60;99.90;;;;;;5007490;28;20029;-87
2021/11/15 08:36:53;;;;;;;15.02;9.98;;;9.20;99.90;;;;;;5006145;28;20056;-86
2021/11/15 08:39:23;;;;;;;15.60;10.65;;;9.20;99.90;;;;;;5007448;28;20038;-85
2021/11/15 08:41:52;;;;;;;19.75;13.00;;;9.20;99.90;;;;;;4991307;28;20490;-85
2021/11/15 08:44:20;;;;;;;16.67;10.80;;;9.30;99.90;;;;;;5005994;28;20502;-85
2021/11/15 08:46:48;;;;;;;18.08;12.68;;;9.30;99.90;;;;;;5006265;28;20022;-84
2021/11/15 08:49:17;;;;;;;17.30;11.05;;;9.30;99.90;;;;;;5004739;28;20026;-85
2021/11/15 08:51:46;;;;;;;26.58;20.92;;;9.30;99.90;;;;;;5005279;28;20526;-85
2021/11/15 08:54:15;;;;;;;19.13;13.63;;;9.30;99.90;;;;;;5008055;28;20080;-84
2021/11/15 08:56:46;;;;;;;16.92;11.15;;;9.60;99.90;;;;;;5010808;28;20038;-84
2021/11/15 08:59:12;;;;;;;23.98;17.02;;;9.10;99.90;;;;;;5006890;28;20129;-85
2021/11/15 09:01:40;;;;;;;17.67;12.07;;;9.20;99.90;;;;;;5005380;28;20030;-84
2021/11/15 09:04:08;;;;;;;20.02;12.57;;;9.00;99.90;;;;;;5056796;28;20071;-84
2021/11/15 09:06:35;;;;;;;18.48;12.18;;;8.90;99.90;;;;;;5050128;28;20032;-85
2021/11/15 09:09:03;;;;;;;43.70;29.30;;;9.40;99.90;;;;;;5073033;28;20097;-84
2021/11/15 09:11:29;;;;;;;24.02;16.45;;;9.00;99.90;;;;;;5066943;28;20035;-83
2021/11/15 09:13:56;;;;;;;18.40;13.45;;;9.00;99.90;;;;;;5049245;28;20512;-82
2021/11/15 09:16:22;;;;;;;22.70;14.73;;;9.10;99.90;;;;;;5067408;28;20035;-83
2021/11/15 09:18:47;;;;;;;23.45;15.57;;;9.20;99.90;;;;;;5067931;28;20401;-84
2021/11/15 09:21:15;;;;;;;16.70;11.52;;;9.60;99.90;;;;;;5069623;28;20105;-83
2021/11/15 09:23:43;;;;;;;71.63;47.75;;;9.20;99.90;;;;;;5071934;28;20490;-84
2021/11/15 09:26:10;;;;;;;23.25;15.25;;;9.20;99.90;;;;;;5067437;28;20453;-84
2021/11/15 09:28:37;;;;;;;30.83;21.10;;;9.10;99.90;;;;;;5066098;28;20477;-84
2021/11/15 09:31:04;;;;;;;21.55;13.48;;;9.10;99.90;;;;;;5065621;28;20089;-84
2021/11/15 09:33:29;;;;;;;20.60;13.52;;;9.50;99.90;;;;;;5067567;28;20047;-85
2021/11/15 09:35:56;;;;;;;19.60;13.18;;;9.10;99.90;;;;;;5075034;28;20029;-94
2021/11/15 09:38:23;;;;;;;24.08;15.73;;;9.20;99.90;;;;;;5068107;28;20067;-84
2021/11/15 09:40:57;;;;;;;21.80;14.85;;;9.40;99.90;;;;;;5066393;28;20389;-85
2021/11/15 09:43:24;;;;;;;19.75;13.80;;;9.50;99.90;;;;;;5066955;28;20090;-84
2021/11/15 09:45:51;;;;;;;24.70;15.70;;;9.20;99.90;;;;;;5049582;28;20032;-85
2021/11/15 09:48:16;;;;;;;28.25;20.52;;;9.60;99.90;;;;;;5068279;28;20032;-84
2021/11/15 09:50:42;;;;;;;24.30;15.52;;;9.20;99.90;;;;;;5072012;28;20085;-85
2021/11/15 09:53:08;;;;;;;24.60;15.95;;;9.20;99.90;;;;;;5067058;28;20393;-85
2021/11/15 09:55:34;;;;;;;23.58;15.95;;;9.20;99.90;;;;;;5044805;28;20039;-85
2021/11/15 09:58:00;;;;;;;24.42;15.45;;;9.50;99.90;;;;;;5065492;28;20032;-84
2021/11/15 10:00:27;;;;;;;23.27;16.33;;;9.40;99.90;;;;;;5049092;28;20541;-84
2021/11/15 10:02:55;;;;;;;24.83;17.20;;;9.50;99.90;;;;;;5072847;28;20528;-85
2021/11/15 10:05:21;;;;;;;22.10;15.60;;;9.30;99.90;;;;;;5066568;28;20027;-84
2021/11/15 10:07:54;;;;;;;22.88;14.65;;;9.90;99.90;;;;;;5065411;28;20384;-84
2021/11/15 10:10:39;;;;;;;28.30;20.27;;;9.40;99.90;;;;;;5065233;28;20161;-84
2021/11/15 10:13:15;;;;;;;22.55;14.43;;;9.40;99.90;;;;;;5064677;28;20044;-84
2021/11/15 10:16:19;;;;;;;21.42;14.05;;;9.40;99.90;;;;;;5066534;28;20029;-84
2021/11/15 10:18:52;;;;;;;20.15;13.23;;;9.40;99.90;;;;;;5037594;28;20048;-85
2021/11/15 10:21:33;;;;;;;28.52;20.65;;;9.50;99.90;;;;;;5049581;28;20029;-85
2021/11/15 10:24:00;;;;;;;48.38;32.92;;;9.60;99.90;;;;;;5064832;28;20029;-85
2021/11/15 10:26:43;;;;;;;42.47;29.05;;;9.50;99.90;;;;;;5046985;28;20036;-85
2021/11/15 10:29:14;;;;;;;20.23;13.32;;;9.50;99.90;;;;;;5064914;28;20039;-84
2021/11/15 10:31:53;;;;;;;22.88;16.60;;;9.70;99.90;;;;;;5065298;28;20063;-85
2021/11/15 10:34:27;;;;;;;25.92;17.88;;;9.30;99.90;;;;;;5062366;28;20030;-85
2021/11/15 10:37:31;;;;;;;21.13;14.57;;;9.40;99.90;;;;;;5047993;28;20513;-85
2021/11/15 10:40:04;;;;;;;21.48;13.45;;;9.40;99.90;;;;;;5039619;28;20035;-84
2021/11/15 10:42:51;;;;;;;21.13;13.98;;;9.20;99.90;;;;;;5035868;28;20447;-85
2021/11/15 10:45:19;;;;;;;21.80;13.35;;;9.30;99.90;;;;;;5066424;28;20036;-84
2021/11/15 10:47:50;;;;;;;24.20;15.40;;;9.40;99.90;;;;;;5070550;28;20079;-84
2021/11/15 10:50:27;;;;;;;25.25;15.25;;;9.30;99.90;;;;;;5064885;28;20115;-83
2021/11/15 10:53:00;;;;;;;20.75;13.80;;;9.20;99.90;;;;;;5065944;28;20037;-83
2021/11/15 10:55:28;;;;;;;21.48;13.38;;;9.30;99.90;;;;;;5064547;28;20079;-83
2021/11/15 10:57:53;;;;;;;23.73;15.90;;;9.40;99.90;;;;;;5064038;28;20036;-84
2021/11/15 11:00:25;;;;;;;27.15;18.10;;;9.40;99.90;;;;;;5066755;28;20033;-84
2021/11/15 11:02:55;;;;;;;30.95;24.00;;;9.40;99.90;;;;;;5071756;28;20077;-84
2021/11/15 11:05:25;;;;;;;20.67;12.88;;;9.50;99.90;;;;;;5066268;28;20024;-87
2021/11/15 11:08:10;;;;;;;35.75;24.67;;;9.70;99.90;;;;;;5054540;28;20029;-86
2021/11/15 11:10:42;;;;;;;58.40;35.95;;;9.40;99.90;;;;;;5051371;28;20055;-86
2021/11/15 11:13:09;;;;;;;27.80;14.82;;;9.40;99.90;;;;;;5045765;28;20056;-85
2021/11/15 11:15:47;;;;;;;57.60;38.55;;;9.60;99.90;;;;;;5048394;28;20025;-89
2021/11/15 11:18:24;;;;;;;47.90;37.97;;;9.60;99.90;;;;;;5068762;28;20097;-88
2021/11/15 11:23:36;;;;;;;22.13;15.77;;;9.60;99.90;;;;;;5066176;28;20024;-93
2021/11/15 11:26:16;;;;;;;19.92;13.90;;;9.60;99.90;;;;;;5068028;28;20032;-92
2021/11/15 11:28:46;;;;;;;27.67;18.60;;;9.70;99.90;;;;;;5066229;28;20027;-90
2021/11/15 11:31:14;;;;;;;26.23;19.30;;;9.60;99.90;;;;;;5048708;28;20405;-91
2021/11/15 11:33:39;;;;;;;24.95;16.20;;;10.10;99.90;;;;;;5057192;28;20033;-92
2021/11/15 11:36:06;;;;;;;28.40;19.70;;;9.50;99.90;;;;;;5054393;28;20033;-93
2021/11/15 11:38:37;;;;;;;29.98;19.95;;;9.60;99.90;;;;;;5050704;28;20025;-92
2021/11/15 11:41:03;;;;;;;26.55;18.33;;;9.60;99.90;;;;;;5067471;28;20082;-91
2021/11/15 11:43:29;;;;;;;41.97;27.67;;;9.60;99.90;;;;;;5050319;28;20409;-91
2021/11/15 11:45:55;;;;;;;40.05;27.95;;;9.60;99.90;;;;;;5048723;28;20029;-91
2021/11/15 11:48:23;;;;;;;22.00;15.45;;;9.60;99.90;;;;;;5067802;28;20027;-90
2021/11/15 11:50:50;;;;;;;24.67;14.80;;;10.10;99.90;;;;;;5071722;28;20473;-87
2021/11/15 11:53:23;;;;;;;20.42;14.48;;;9.50;99.90;;;;;;5046639;28;20032;-86
2021/11/15 11:55:49;;;;;;;23.88;15.27;;;9.50;99.90;;;;;;5047519;28;20038;-88
2021/11/15 11:58:33;;;;;;;36.60;25.60;;;9.80;99.90;;;;;;5065408;28;20098;-85
2021/11/15 12:01:13;;;;;;;21.50;14.85;;;9.70;99.90;;;;;;5065698;28;20078;-90
2021/11/15 12:03:38;;;;;;;30.42;19.88;;;9.90;99.90;;;;;;5039428;28;20482;-88
2021/11/15 12:06:28;;;;;;;88.85;55.47;;;10.20;99.90;;;;;;5055886;28;20032;-88
2021/11/15 12:08:56;;;;;;;43.53;31.35;;;9.70;99.90;;;;;;5070885;28;20384;-88
2021/11/15 12:11:23;;;;;;;33.83;24.25;;;9.60;99.90;;;;;;5070871;28;20031;-88
2021/11/15 12:13:49;;;;;;;36.97;25.08;;;9.70;99.90;;;;;;5069173;28;20047;-88
2021/11/15 12:16:15;;;;;;;25.92;18.20;;;9.70;99.90;;;;;;5067552;28;20029;-87
2021/11/15 12:18:54;;;;;;;23.08;14.85;;;9.60;99.90;;;;;;5067869;28;20044;-87
2021/11/15 12:21:22;;;;;;;54.42;34.97;;;10.20;99.90;;;;;;5069592;28;20401;-87
2021/11/15 12:23:50;;;;;;;45.45;29.50;;;9.90;99.90;;;;;;5060478;28;20465;-89
2021/11/15 12:26:24;;;;;;;43.63;31.63;;;9.80;99.90;;;;;;5070828;28;20094;-91
2021/11/15 12:28:53;;;;;;;40.22;30.35;;;9.70;99.90;;;;;;5068140;28;20036;-84
2021/11/15 12:31:42;;;;;;;34.55;24.75;;;9.70;99.90;;;;;;5068394;28;20056;-84
2021/11/15 12:34:07;;;;;;;35.17;26.73;;;9.80;99.90;;;;;;5068172;28;20027;-84
2021/11/15 12:36:41;;;;;;;31.50;22.83;;;9.60;99.90;;;;;;5068423;28;20029;-84
2021/11/15 12:39:13;;;;;;;35.58;24.92;;;9.60;99.90;;;;;;5071680;28;20480;-84
2021/11/15 12:41:41;;;;;;;45.75;33.80;;;9.70;99.90;;;;;;5055782;28;20493;-85
2021/11/15 12:44:17;;;;;;;23.35;16.45;;;9.80;99.90;;;;;;5064591;28;20374;-84